createdAt,value
2023-01-20T00:02:11.082Z,113.80
2023-01-20T00:04:37.717Z,108.37
2023-01-20T00:07:04.313Z,116.13
2023-01-20T00:09:30.932Z,120.93
2023-01-20T00:11:57.468Z,128.57
2023-01-20T00:14:25.654Z,112.07
2023-01-20T00:16:52.259Z,109.27
2023-01-20T00:19:18.969Z,114.47
2023-01-20T00:21:45.516Z,107.30
2023-01-20T00:24:12.043Z,105.30
2023-01-20T00:26:38.743Z,116.20
2023-01-20T00:29:05.226Z,109.50
2023-01-20T00:31:32.244Z,108.63
2023-01-20T00:34:00.364Z,104.23
2023-01-20T00:36:28.602Z,105.60
2023-01-20T00:38:55.241Z,107.40
2023-01-20T00:41:22.079Z,108.67
2023-01-20T00:43:49.049Z,113.23
2023-01-20T00:46:15.823Z,108.00
2023-01-20T00:48:42.926Z,102.70
2023-01-20T00:51:10.347Z,105.97
2023-01-20T00:53:36.931Z,116.87
2023-01-20T00:56:03.904Z,113.97
2023-01-20T00:58:30.461Z,118.10
2023-01-20T01:00:58.696Z,114.30
2023-01-20T01:03:28.219Z,117.80
2023-01-20T01:05:55.038Z,111.60
2023-01-20T01:08:21.695Z,90.60
2023-01-20T01:10:48.330Z,100.27
2023-01-20T01:13:14.922Z,106.13
2023-01-20T01:15:48.200Z,102.73
2023-01-20T01:18:15.077Z,103.47
2023-01-20T01:20:41.536Z,103.17
2023-01-20T01:23:07.996Z,108.47
2023-01-20T01:25:34.829Z,109.07
2023-01-20T01:28:01.315Z,101.03
2023-01-20T01:30:27.936Z,95.73
2023-01-20T01:32:54.635Z,101.10
2023-01-20T01:35:21.130Z,93.10
2023-01-20T01:37:47.704Z,105.93
2023-01-20T01:40:14.402Z,112.00
2023-01-20T01:42:42.874Z,97.60
2023-01-20T01:45:12.639Z,90.87
2023-01-20T01:48:03.068Z,99.57
2023-01-20T01:50:39.243Z,104.77
2023-01-20T01:53:06.267Z,105.50
2023-01-20T01:55:35.197Z,108.10
2023-01-20T01:58:02.975Z,98.53
2023-01-20T02:00:29.563Z,102.10
2023-01-20T02:02:56.740Z,110.63
2023-01-20T02:05:25.189Z,119.07
2023-01-20T02:07:52.322Z,110.13
2023-01-20T02:10:18.858Z,107.00
2023-01-20T02:12:49.415Z,108.10
2023-01-20T02:15:17.346Z,115.03
2023-01-20T02:17:49.621Z,111.87
2023-01-20T02:20:28.435Z,115.03
2023-01-20T02:22:59.421Z,106.33
2023-01-20T02:25:46.626Z,115.67
2023-01-20T02:28:16.076Z,108.10
2023-01-20T02:31:08.674Z,101.30
2023-01-20T02:33:41.284Z,122.27
2023-01-20T02:36:20.832Z,121.90
2023-01-20T02:38:55.249Z,129.13
2023-01-20T02:41:35.263Z,114.20
2023-01-20T02:44:15.986Z,127.77
2023-01-20T02:47:12.040Z,115.87
2023-01-20T02:50:07.691Z,118.50
2023-01-20T02:52:44.414Z,141.20
2023-01-20T02:55:15.568Z,138.63
2023-01-20T02:57:45.931Z,123.67
2023-01-20T03:00:25.948Z,147.00
2023-01-20T03:02:53.713Z,125.73
2023-01-20T03:05:41.336Z,139.93
2023-01-20T03:08:10.039Z,132.23
2023-01-20T03:10:37.787Z,142.70
2023-01-20T03:13:36.517Z,146.70
2023-01-20T03:16:09.739Z,162.23
2023-01-20T03:18:36.907Z,137.17
2023-01-20T03:21:05.638Z,137.60
2023-01-20T03:23:34.911Z,157.40
2023-01-20T03:26:13.788Z,171.57
2023-01-20T03:28:44.684Z,159.23
2023-01-20T03:31:30.440Z,148.50
2023-01-20T03:33:59.055Z,124.80
2023-01-20T03:36:27.359Z,163.73
2023-01-20T03:38:55.152Z,140.30
2023-01-20T03:41:40.094Z,123.97
2023-01-20T03:44:12.889Z,170.10
2023-01-20T03:46:46.247Z,168.30
2023-01-20T03:49:24.417Z,158.90
2023-01-20T03:51:55.408Z,168.90
2023-01-20T03:54:28.365Z,190.50
2023-01-20T03:57:06.764Z,171.33
2023-01-20T03:59:36.017Z,139.07
2023-01-20T04:02:04.492Z,191.80
2023-01-20T04:04:33.713Z,164.80
2023-01-20T04:07:00.511Z,153.90
2023-01-20T04:09:29.581Z,138.63
2023-01-20T04:11:56.243Z,146.30
2023-01-20T04:14:22.889Z,199.10
2023-01-20T04:16:57.420Z,157.67
2023-01-20T04:19:24.676Z,150.43
2023-01-20T04:22:07.760Z,171.87
2023-01-20T04:24:57.430Z,151.77
2023-01-20T04:27:23.972Z,169.10
2023-01-20T04:29:50.527Z,162.03
2023-01-20T04:32:17.075Z,164.00
2023-01-20T04:34:43.602Z,181.47
2023-01-20T04:37:10.067Z,151.77
2023-01-20T04:39:36.622Z,150.13
2023-01-20T04:42:03.725Z,167.43
2023-01-20T04:44:30.214Z,194.60
2023-01-20T04:46:58.742Z,168.07
2023-01-20T04:49:25.453Z,170.70
2023-01-20T04:51:51.883Z,206.10
2023-01-20T04:54:18.650Z,198.60
2023-01-20T04:56:45.443Z,199.53
2023-01-20T04:59:11.990Z,208.13
2023-01-20T05:01:38.778Z,203.73
2023-01-20T05:04:05.502Z,210.20
2023-01-20T05:06:31.964Z,209.10
2023-01-20T05:08:58.746Z,243.47
2023-01-20T05:11:25.358Z,257.83
2023-01-20T05:13:51.810Z,180.37
2023-01-20T05:16:25.090Z,229.97
2023-01-20T05:18:51.703Z,245.03
2023-01-20T05:21:18.229Z,215.03
2023-01-20T05:23:44.820Z,217.47
2023-01-20T05:26:11.445Z,180.43
2023-01-20T05:28:38.028Z,184.90
2023-01-20T05:31:04.713Z,221.93
2023-01-20T05:33:31.387Z,236.17
2023-01-20T05:35:57.841Z,203.93
2023-01-20T05:38:24.370Z,234.13
2023-01-20T05:40:50.984Z,214.37
2023-01-20T05:43:17.472Z,246.03
2023-01-20T05:45:44.103Z,260.83
2023-01-20T05:48:10.715Z,297.83
2023-01-20T05:50:37.244Z,222.27
2023-01-20T05:53:03.852Z,235.43
2023-01-20T05:55:30.467Z,262.67
2023-01-20T05:57:56.931Z,208.63
2023-01-20T06:00:23.779Z,235.60
2023-01-20T06:02:50.476Z,198.03
2023-01-20T06:05:17.614Z,205.83
2023-01-20T06:07:44.599Z,201.27
2023-01-20T06:10:11.595Z,275.20
2023-01-20T06:12:38.148Z,259.13
2023-01-20T06:15:05.258Z,262.67
2023-01-20T06:17:31.855Z,213.87
2023-01-20T06:19:58.696Z,266.67
2023-01-20T06:22:26.277Z,245.47
2023-01-20T06:24:52.858Z,176.83
2023-01-20T06:27:19.847Z,252.30
2023-01-20T06:29:46.566Z,245.10
2023-01-20T06:32:13.073Z,256.43
2023-01-20T06:34:39.787Z,235.13
2023-01-20T06:37:06.685Z,241.33
2023-01-20T06:39:33.241Z,259.93
2023-01-20T06:42:00.417Z,190.20
2023-01-20T06:44:27.253Z,205.80
2023-01-20T06:46:54.252Z,214.60
2023-01-20T06:49:20.808Z,224.10
2023-01-20T06:51:49.024Z,219.50
2023-01-20T06:54:16.411Z,210.77
2023-01-20T06:56:43.015Z,215.30
2023-01-20T06:59:10.777Z,240.53
2023-01-20T07:01:37.597Z,217.20
2023-01-20T07:04:04.126Z,210.87
2023-01-20T07:06:38.915Z,221.17
2023-01-20T07:09:07.312Z,209.70
2023-01-20T07:11:35.774Z,204.43
2023-01-20T07:14:03.334Z,232.13
2023-01-20T07:16:30.069Z,192.23
2023-01-20T07:18:56.606Z,184.20
2023-01-20T07:21:26.263Z,187.53
2023-01-20T07:23:53.142Z,185.63
2023-01-20T07:26:22.216Z,185.03
2023-01-20T07:28:49.256Z,186.10
2023-01-20T07:31:18.215Z,171.90
2023-01-20T07:33:45.469Z,201.97
2023-01-20T07:36:12.994Z,192.67
2023-01-20T07:38:40.452Z,195.27
2023-01-20T07:41:10.905Z,176.93
2023-01-20T07:43:38.179Z,191.23
2023-01-20T07:46:05.279Z,192.00
2023-01-20T07:48:33.378Z,181.77
2023-01-20T07:51:03.414Z,177.03
2023-01-20T07:53:30.775Z,173.80
2023-01-20T07:56:01.172Z,160.23
2023-01-20T07:58:28.926Z,130.57
2023-01-20T08:00:55.813Z,157.60
2023-01-20T08:03:23.280Z,176.73
2023-01-20T08:05:50.074Z,158.07
2023-01-20T08:08:16.736Z,151.53
2023-01-20T08:10:43.341Z,143.70
2023-01-20T08:13:10.197Z,159.53
2023-01-20T08:15:37.263Z,161.13
2023-01-20T08:18:04.333Z,169.73
2023-01-20T08:20:31.001Z,157.30
2023-01-20T08:22:57.704Z,170.03
2023-01-20T08:25:24.324Z,132.47
2023-01-20T08:27:50.948Z,145.00
2023-01-20T08:30:17.946Z,159.70
2023-01-20T08:32:44.639Z,139.33
2023-01-20T08:35:11.207Z,137.80
2023-01-20T08:37:37.935Z,140.03
2023-01-20T08:40:09.179Z,145.90
2023-01-20T08:42:37.346Z,134.17
2023-01-20T08:45:05.866Z,127.83
2023-01-20T08:47:36.084Z,116.13
2023-01-20T08:50:04.034Z,129.53
2023-01-20T08:52:30.729Z,113.20
2023-01-20T08:54:58.702Z,109.90
2023-01-20T08:57:26.801Z,118.47
2023-01-20T08:59:54.197Z,123.13
2023-01-20T09:02:20.798Z,105.47
2023-01-20T09:04:50.471Z,116.17
2023-01-20T09:07:18.614Z,110.57
2023-01-20T09:09:45.755Z,109.03
2023-01-20T09:12:12.623Z,113.73
2023-01-20T09:14:41.254Z,120.53
2023-01-20T09:17:07.809Z,113.83
2023-01-20T09:19:34.403Z,110.77
2023-01-20T09:22:01.150Z,88.37
2023-01-20T09:24:27.752Z,93.03
2023-01-20T09:26:54.639Z,88.93
2023-01-20T09:29:21.487Z,88.23
2023-01-20T09:31:53.442Z,76.33
2023-01-20T09:34:24.464Z,82.27
2023-01-20T09:36:52.983Z,62.03
2023-01-20T09:39:38.871Z,74.13
2023-01-20T09:42:39.907Z,62.17
2023-01-20T09:45:28.041Z,66.93
2023-01-20T09:48:14.132Z,63.27
2023-01-20T09:51:13.438Z,63.77
2023-01-20T09:53:46.100Z,64.23
2023-01-20T09:56:16.717Z,59.73
2023-01-20T09:58:57.933Z,58.40
2023-01-20T10:01:36.871Z,57.33
2023-01-20T10:04:12.330Z,52.47
2023-01-20T10:06:38.970Z,55.23
2023-01-20T10:09:26.197Z,45.87
2023-01-20T10:12:00.050Z,46.33
2023-01-20T10:14:37.343Z,46.73
2023-01-20T10:17:13.164Z,48.57
2023-01-20T10:19:44.343Z,53.73
2023-01-20T10:22:26.475Z,51.07
2023-01-20T10:24:59.797Z,57.63
2023-01-20T10:27:28.972Z,55.30
2023-01-20T10:30:06.258Z,46.10
2023-01-20T10:32:36.677Z,46.63
2023-01-20T10:35:19.008Z,48.97
2023-01-20T10:37:45.628Z,55.83
2023-01-20T10:40:21.638Z,53.93
2023-01-20T10:42:49.798Z,49.27
2023-01-20T10:45:24.762Z,49.60
2023-01-20T10:48:10.117Z,54.90
2023-01-20T10:51:01.752Z,53.43
2023-01-20T10:53:49.078Z,57.30
2023-01-20T10:56:32.808Z,56.67
2023-01-20T10:59:04.558Z,48.13
2023-01-20T11:01:31.410Z,53.73
2023-01-20T11:03:58.034Z,49.27
2023-01-20T11:06:26.872Z,57.87
2023-01-20T11:08:54.383Z,52.10
2023-01-20T11:11:23.356Z,53.23
2023-01-20T11:13:53.820Z,57.43
2023-01-20T11:16:25.068Z,62.90
2023-01-20T11:19:02.889Z,51.40
2023-01-20T11:21:31.749Z,54.67
2023-01-20T11:23:59.446Z,49.83
2023-01-20T11:26:30.225Z,51.77
2023-01-20T11:29:24.109Z,50.13
2023-01-20T11:31:52.997Z,46.83
2023-01-20T11:34:32.452Z,51.73
2023-01-20T11:37:04.887Z,50.93
2023-01-20T11:39:36.988Z,50.60
2023-01-20T11:42:10.589Z,50.90
2023-01-20T11:44:47.705Z,50.93
2023-01-20T11:47:37.525Z,45.97
2023-01-20T11:50:18.142Z,43.87
2023-01-20T11:52:48.519Z,42.70
2023-01-20T11:55:23.721Z,37.80
2023-01-20T11:57:56.552Z,37.23
2023-01-20T12:00:41.735Z,40.23
2023-01-20T12:03:11.842Z,36.00
2023-01-20T12:06:20.611Z,40.77
2023-01-20T12:08:50.585Z,47.70
2023-01-20T12:11:41.845Z,40.17
2023-01-20T12:14:28.861Z,40.67
2023-01-20T12:16:58.413Z,38.23
2023-01-20T12:19:32.790Z,38.97
2023-01-20T12:22:03.625Z,40.67
2023-01-20T12:24:59.442Z,37.43
2023-01-20T12:27:27.412Z,39.13
2023-01-20T12:29:58.495Z,39.17
2023-01-20T12:32:25.165Z,38.33
2023-01-20T12:34:51.916Z,40.10
2023-01-20T12:37:27.934Z,39.73
2023-01-20T12:40:16.651Z,41.17
2023-01-20T12:43:19.249Z,40.93
2023-01-20T12:45:56.043Z,42.57
2023-01-20T12:48:44.862Z,33.97
2023-01-20T12:51:35.960Z,39.13
2023-01-20T12:54:14.427Z,38.47
2023-01-20T12:56:43.557Z,38.20
2023-01-20T12:59:29.844Z,33.23
2023-01-20T13:02:37.555Z,30.43
2023-01-20T13:05:21.929Z,34.83
2023-01-20T13:07:58.466Z,34.37
2023-01-20T13:10:55.436Z,33.37
2023-01-20T13:13:57.639Z,28.17
2023-01-20T13:16:42.811Z,32.43
2023-01-20T13:19:24.752Z,35.77
2023-01-20T13:22:06.991Z,30.23
2023-01-20T13:24:34.653Z,32.93
2023-01-20T13:27:01.903Z,33.13
2023-01-20T13:29:37.219Z,34.20
2023-01-20T13:32:18.214Z,39.30
2023-01-20T13:34:44.856Z,39.07
2023-01-20T13:37:23.645Z,40.77
2023-01-20T13:39:50.696Z,40.93
2023-01-20T13:42:29.304Z,40.87
2023-01-20T13:45:14.678Z,41.30
2023-01-20T13:47:57.802Z,35.20
2023-01-20T13:50:34.016Z,38.20
2023-01-20T13:53:00.692Z,35.93
2023-01-20T13:55:48.169Z,36.33
2023-01-20T13:58:15.458Z,35.90
2023-01-20T14:00:42.620Z,40.47
2023-01-20T14:03:40.286Z,38.43
2023-01-20T14:06:19.251Z,34.40
2023-01-20T14:08:50.422Z,36.80
2023-01-20T14:11:27.341Z,42.57
2023-01-20T14:14:05.534Z,31.10
2023-01-20T14:16:35.337Z,33.57
2023-01-20T14:19:15.137Z,34.70
2023-01-20T14:21:42.411Z,26.73
2023-01-20T14:24:28.516Z,26.97
2023-01-20T14:27:19.567Z,28.90
2023-01-20T14:29:47.250Z,29.20
2023-01-20T14:32:20.595Z,32.33
2023-01-20T14:34:49.000Z,36.17
2023-01-20T14:37:30.159Z,24.43
2023-01-20T14:39:59.367Z,24.17
2023-01-20T14:42:28.263Z,26.43
2023-01-20T14:44:55.946Z,21.27
2023-01-20T14:47:24.252Z,24.67
2023-01-20T14:49:52.351Z,23.77
2023-01-20T14:52:25.670Z,24.43
2023-01-20T14:54:56.036Z,21.37
2023-01-20T14:57:27.010Z,25.00
2023-01-20T15:00:11.580Z,26.00
2023-01-20T15:02:40.513Z,23.67
2023-01-20T15:05:28.057Z,19.60
2023-01-20T15:08:25.324Z,24.80
2023-01-20T15:11:18.177Z,27.87
2023-01-20T15:14:08.624Z,23.37
2023-01-20T15:16:44.678Z,23.63
2023-01-20T15:19:13.947Z,26.10
2023-01-20T15:21:43.331Z,29.33
2023-01-20T15:24:16.556Z,30.57
2023-01-20T15:26:44.144Z,29.47
2023-01-20T15:29:23.871Z,30.37
2023-01-20T15:31:51.418Z,29.70
2023-01-20T15:34:18.929Z,29.00
2023-01-20T15:36:47.095Z,36.63
2023-01-20T15:39:24.902Z,35.63
2023-01-20T15:41:55.015Z,36.97
2023-01-20T15:44:22.285Z,32.60
2023-01-20T15:46:48.999Z,35.37
2023-01-20T15:49:16.263Z,32.83
2023-01-20T15:51:43.993Z,36.03
2023-01-20T15:54:11.318Z,35.07
2023-01-20T15:56:41.746Z,40.70
2023-01-20T15:59:16.552Z,34.30
2023-01-20T16:01:47.443Z,39.33
2023-01-20T16:04:14.116Z,35.40
2023-01-20T16:06:42.443Z,36.03
2023-01-20T16:09:30.086Z,36.33
2023-01-20T16:11:56.692Z,36.70
2023-01-20T16:14:23.202Z,41.50
2023-01-20T16:16:49.863Z,39.93
2023-01-20T16:19:17.042Z,42.07
2023-01-20T16:21:45.456Z,38.67
2023-01-20T16:24:12.689Z,34.90
2023-01-20T16:26:40.061Z,42.30
2023-01-20T16:29:08.761Z,43.77
2023-01-20T16:31:35.636Z,42.50
2023-01-20T16:34:02.427Z,42.43
2023-01-20T16:36:29.019Z,37.17
2023-01-20T16:38:55.700Z,34.50
2023-01-20T16:41:30.692Z,39.37
2023-01-20T16:43:58.695Z,35.43
2023-01-20T16:46:29.607Z,35.07
2023-01-20T16:49:03.550Z,33.70
2023-01-20T16:51:31.124Z,34.17
2023-01-20T16:53:58.168Z,31.00
2023-01-20T16:56:30.029Z,32.63
2023-01-20T16:58:58.421Z,28.60
2023-01-20T17:01:25.690Z,25.00
2023-01-20T17:03:56.861Z,21.40
2023-01-20T17:06:26.052Z,23.37
2023-01-20T17:08:54.299Z,23.27
2023-01-20T17:11:26.091Z,24.87
2023-01-20T17:13:53.065Z,31.27
2023-01-20T17:16:20.584Z,30.37
2023-01-20T17:18:51.365Z,29.70
2023-01-20T17:21:20.520Z,30.37
2023-01-20T17:23:59.572Z,28.00
2023-01-20T17:26:26.247Z,32.13
2023-01-20T17:29:00.112Z,24.27
2023-01-20T17:31:28.443Z,24.77
2023-01-20T17:33:55.076Z,28.50
2023-01-20T17:36:21.666Z,25.53
2023-01-20T17:38:48.426Z,26.63
2023-01-20T17:41:15.504Z,26.93
2023-01-20T17:43:44.213Z,26.27
2023-01-20T17:46:15.128Z,20.23
2023-01-20T17:48:42.185Z,22.93
2023-01-20T17:51:13.199Z,21.13
2023-01-20T17:53:41.518Z,21.87
2023-01-20T17:56:12.923Z,23.10
2023-01-20T17:58:44.529Z,28.03
2023-01-20T18:01:19.793Z,24.93
2023-01-20T18:03:48.330Z,22.77
2023-01-20T18:06:16.481Z,23.97
2023-01-20T18:08:44.114Z,23.57
2023-01-20T18:11:19.818Z,23.40
2023-01-20T18:13:47.738Z,22.90
2023-01-20T18:16:16.228Z,25.73
2023-01-20T18:18:44.199Z,27.10
2023-01-20T18:21:21.682Z,27.67
2023-01-20T18:23:50.130Z,27.63
2023-01-20T18:26:18.777Z,22.40
2023-01-20T18:28:47.956Z,25.23
2023-01-20T18:31:19.901Z,23.60
2023-01-20T18:33:49.112Z,25.90
2023-01-20T18:36:19.931Z,27.67
2023-01-20T18:38:54.176Z,25.57
2023-01-20T18:41:21.854Z,22.83
2023-01-20T18:43:49.241Z,26.37
2023-01-20T18:46:16.398Z,26.67
2023-01-20T18:48:47.366Z,22.67
2023-01-20T18:51:15.279Z,22.47
2023-01-20T18:53:44.065Z,22.63
2023-01-20T18:56:12.715Z,22.60
2023-01-20T18:58:41.261Z,24.97
2023-01-20T19:01:09.804Z,20.07
2023-01-20T19:03:37.799Z,27.27
2023-01-20T19:06:05.871Z,21.40
2023-01-20T19:08:32.666Z,22.03
2023-01-20T19:11:03.854Z,20.30
2023-01-20T19:13:30.514Z,19.43
2023-01-20T19:15:57.784Z,24.97
2023-01-20T19:18:24.874Z,19.73
2023-01-20T19:20:51.614Z,21.33
2023-01-20T19:23:18.975Z,20.60
2023-01-20T19:25:45.540Z,20.37
2023-01-20T19:28:14.220Z,16.70
2023-01-20T19:30:42.041Z,19.90
2023-01-20T19:33:12.078Z,19.53
2023-01-20T19:35:41.146Z,17.20
2023-01-20T19:38:08.601Z,20.33
2023-01-20T19:40:35.124Z,17.80
2023-01-20T19:43:01.733Z,18.03
2023-01-20T19:45:40.408Z,20.20
2023-01-20T19:48:11.542Z,16.43
2023-01-20T19:50:38.311Z,15.90
2023-01-20T19:53:04.773Z,14.73
2023-01-20T19:55:31.326Z,15.87
2023-01-20T19:57:57.967Z,15.30
2023-01-20T20:00:24.496Z,16.83
2023-01-20T20:02:54.481Z,17.93
2023-01-20T20:05:21.257Z,16.73
2023-01-20T20:07:47.747Z,18.67
2023-01-20T20:10:17.697Z,17.10
2023-01-20T20:12:44.790Z,15.90
2023-01-20T20:15:11.466Z,20.97
2023-01-20T20:17:38.055Z,18.30
2023-01-20T20:20:05.682Z,21.97
2023-01-20T20:22:32.181Z,22.77
2023-01-20T20:24:58.865Z,27.10
2023-01-20T20:27:25.504Z,23.93
2023-01-20T20:29:54.501Z,21.83
2023-01-20T20:32:21.013Z,28.17
2023-01-20T20:34:47.685Z,26.17
2023-01-20T20:37:14.319Z,29.00
2023-01-20T20:39:45.762Z,21.13
2023-01-20T20:42:12.680Z,20.17
2023-01-20T20:44:41.436Z,21.20
2023-01-20T20:47:07.986Z,20.47
2023-01-20T20:49:34.881Z,23.53
2023-01-20T20:52:04.323Z,23.50
2023-01-20T20:54:30.833Z,20.97
2023-01-20T20:56:57.517Z,19.93
2023-01-20T20:59:24.770Z,21.93
2023-01-20T21:01:52.471Z,21.27
2023-01-20T21:04:19.573Z,17.70
2023-01-20T21:06:46.068Z,16.10
2023-01-20T21:09:12.654Z,16.87
2023-01-20T21:11:41.540Z,18.07
2023-01-20T21:14:09.522Z,19.10
2023-01-20T21:16:36.207Z,14.87
2023-01-20T21:19:03.403Z,16.23
2023-01-20T21:21:29.941Z,15.53
2023-01-20T21:23:57.784Z,14.27
2023-01-20T21:26:30.032Z,13.87
2023-01-20T21:28:57.382Z,13.73
2023-01-20T21:31:26.649Z,13.40
2023-01-20T21:33:55.348Z,13.73
2023-01-20T21:36:22.528Z,12.53
2023-01-20T21:38:49.537Z,11.23
2023-01-20T21:41:16.682Z,11.03
2023-01-20T21:44:03.203Z,14.77
2023-01-20T21:46:32.436Z,11.37
2023-01-20T21:49:17.545Z,12.10
2023-01-20T21:52:02.823Z,11.33
2023-01-20T21:54:30.077Z,11.00
2023-01-20T21:56:56.963Z,11.60
2023-01-20T21:59:23.549Z,12.83
2023-01-20T22:01:50.429Z,12.07
2023-01-20T22:04:16.996Z,14.07
2023-01-20T22:06:43.648Z,13.30
2023-01-20T22:09:10.791Z,11.90
2023-01-20T22:11:37.469Z,10.40
2023-01-20T22:14:04.445Z,10.23
2023-01-20T22:16:32.255Z,13.30
2023-01-20T22:18:58.814Z,10.67
2023-01-20T22:21:25.775Z,12.50
2023-01-20T22:23:53.496Z,12.37
2023-01-20T22:26:20.095Z,12.40
2023-01-20T22:28:46.880Z,12.83
2023-01-20T22:31:17.638Z,18.27
2023-01-20T22:33:44.278Z,13.90
2023-01-20T22:36:11.001Z,12.83
2023-01-20T22:38:37.471Z,16.23
2023-01-20T22:41:04.976Z,13.53
2023-01-20T22:43:31.743Z,16.47
2023-01-20T22:45:59.702Z,16.77
2023-01-20T22:48:26.777Z,14.80
2023-01-20T22:50:54.624Z,15.13
2023-01-20T22:53:21.327Z,16.77
2023-01-20T22:56:00.381Z,19.17
2023-01-20T22:58:27.567Z,16.97
2023-01-20T23:00:54.288Z,21.20
2023-01-20T23:03:20.803Z,18.43
2023-01-20T23:05:54.613Z,19.27
2023-01-20T23:08:21.305Z,20.60
2023-01-20T23:10:47.899Z,16.87
2023-01-20T23:13:16.293Z,22.73
2023-01-20T23:15:43.839Z,18.47
2023-01-20T23:18:11.045Z,20.33
2023-01-20T23:20:38.143Z,19.20
2023-01-20T23:23:05.091Z,20.93
2023-01-20T23:25:31.560Z,19.80
2023-01-20T23:27:58.272Z,16.97
2023-01-20T23:30:24.950Z,21.97
2023-01-20T23:32:51.494Z,20.13
2023-01-20T23:35:18.178Z,23.37
2023-01-20T23:37:44.791Z,22.73
2023-01-20T23:40:11.876Z,24.77
2023-01-20T23:42:38.450Z,21.77
2023-01-20T23:45:05.644Z,27.67
2023-01-20T23:47:32.125Z,27.97
2023-01-20T23:49:58.649Z,25.07
2023-01-20T23:52:26.108Z,25.30
2023-01-20T23:54:53.327Z,24.47
2023-01-20T23:57:20.630Z,25.53
2023-01-20T23:59:47.240Z,24.37
